createdAt,value
2022-08-18T00:01:56.255Z,97744.66
2022-08-18T00:04:29.897Z,97747.03
2022-08-18T00:07:04.211Z,97750.19
2022-08-18T00:09:34.000Z,97754.50
2022-08-18T00:12:04.074Z,97752.25
2022-08-18T00:14:32.634Z,97759.78
2022-08-18T00:17:01.130Z,97756.63
2022-08-18T00:19:45.457Z,97753.50
2022-08-18T00:22:18.358Z,97757.84
2022-08-18T00:24:49.238Z,97756.63
2022-08-18T00:27:21.747Z,97748.78
2022-08-18T00:29:52.165Z,97757.03
2022-08-18T00:32:24.002Z,97767.63
2022-08-18T00:34:54.126Z,97768.84
2022-08-18T00:37:23.989Z,97764.59
2022-08-18T00:39:52.827Z,97765.44
2022-08-18T00:42:27.292Z,97753.59
2022-08-18T00:45:02.965Z,97759.13
2022-08-18T00:47:41.502Z,97758.31
2022-08-18T00:50:24.879Z,97753.53
2022-08-18T00:52:57.325Z,97753.53
2022-08-18T00:55:26.651Z,97753.09
2022-08-18T00:58:01.782Z,97743.38
2022-08-18T01:00:30.170Z,97750.47
2022-08-18T01:03:02.216Z,97749.28
2022-08-18T01:05:40.984Z,97743.38
2022-08-18T01:08:11.827Z,97749.72
2022-08-18T01:10:40.579Z,97736.78
2022-08-18T01:13:09.372Z,97734.09
2022-08-18T01:15:38.171Z,97738.84
2022-08-18T01:18:28.938Z,97730.94
2022-08-18T01:21:23.218Z,97734.06
2022-08-18T01:23:55.633Z,97719.91
2022-08-18T01:26:26.274Z,97726.19
2022-08-18T01:28:54.340Z,97735.63
2022-08-18T01:31:38.131Z,97739.91
2022-08-18T01:34:07.617Z,97735.63
2022-08-18T01:36:38.325Z,97730.19
2022-08-18T01:39:10.179Z,97738.06
2022-08-18T01:41:38.545Z,97749.50
2022-08-18T01:44:11.641Z,97745.97
2022-08-18T01:46:41.740Z,97749.13
2022-08-18T01:49:10.852Z,97732.28
2022-08-18T01:51:41.421Z,97729.56
2022-08-18T01:54:14.765Z,97735.91
2022-08-18T01:56:43.580Z,97730.38
2022-08-18T01:59:13.578Z,97737.13
2022-08-18T02:01:48.860Z,97736.72
2022-08-18T02:04:41.356Z,97739.16
2022-08-18T02:07:12.007Z,97732.88
2022-08-18T02:09:44.093Z,97730.91
2022-08-18T02:12:13.471Z,97721.44
2022-08-18T02:14:41.890Z,97699.44
2022-08-18T02:17:11.994Z,97711.66
2022-08-18T02:19:42.860Z,97710.13
2022-08-18T02:22:13.424Z,97718.81
2022-08-18T02:24:43.313Z,97717.22
2022-08-18T02:27:13.182Z,97727.84
2022-08-18T02:29:41.787Z,97723.53
2022-08-18T02:32:09.773Z,97719.53
2022-08-18T02:34:37.834Z,97718.75
2022-08-18T02:37:05.610Z,97705.41
2022-08-18T02:39:37.910Z,97712.53
2022-08-18T02:42:07.846Z,97703.53
2022-08-18T02:44:36.638Z,97703.94
2022-08-18T02:47:05.048Z,97697.25
2022-08-18T02:49:33.465Z,97690.56
2022-08-18T02:52:01.294Z,97708.69
2022-08-18T02:54:29.207Z,97708.66
2022-08-18T02:56:58.066Z,97704.34
2022-08-18T02:59:28.467Z,97696.88
2022-08-18T03:02:00.119Z,97708.66
2022-08-18T03:04:30.688Z,97707.09
2022-08-18T03:07:01.270Z,97711.81
2022-08-18T03:09:30.443Z,97714.94
2022-08-18T03:11:59.763Z,97716.16
2022-08-18T03:14:29.427Z,97712.59
2022-08-18T03:16:58.345Z,97724.78
2022-08-18T03:19:28.477Z,97728.34
2022-08-18T03:21:59.381Z,97721.28
2022-08-18T03:24:31.653Z,97728.34
2022-08-18T03:27:01.539Z,97727.56
2022-08-18T03:29:32.677Z,97730.69
2022-08-18T03:32:02.006Z,97715.34
2022-08-18T03:34:30.549Z,97742.50
2022-08-18T03:36:59.285Z,97736.22
2022-08-18T03:39:28.547Z,97733.84
2022-08-18T03:42:01.534Z,97734.63
2022-08-18T03:44:34.173Z,97728.34
2022-08-18T03:47:03.623Z,97733.06
2022-08-18T03:49:33.536Z,97743.31
2022-08-18T03:52:01.907Z,97735.41
2022-08-18T03:54:32.076Z,97744.09
2022-08-18T03:57:01.205Z,97734.66
2022-08-18T03:59:32.018Z,97748.03
2022-08-18T04:02:00.879Z,97750.38
2022-08-18T04:04:30.146Z,97746.44
2022-08-18T04:07:00.430Z,97755.50
2022-08-18T04:09:30.210Z,97773.97
2022-08-18T04:11:59.438Z,97772.00
2022-08-18T04:14:30.363Z,97774.75
2022-08-18T04:17:00.339Z,97788.53
2022-08-18T04:19:28.559Z,97785.00
2022-08-18T04:21:58.167Z,97780.25
2022-08-18T04:24:31.063Z,97771.63
2022-08-18T04:27:01.699Z,97764.53
2022-08-18T04:29:30.220Z,97767.66
2022-08-18T04:32:01.534Z,97771.63
2022-08-18T04:34:29.667Z,97772.41
2022-08-18T04:36:57.709Z,97774.75
2022-08-18T04:39:25.747Z,97775.53
2022-08-18T04:41:53.969Z,97787.28
2022-08-18T04:44:22.237Z,97788.09
2022-08-18T04:46:52.761Z,97789.63
2022-08-18T04:49:26.092Z,97789.59
2022-08-18T04:52:36.334Z,97797.44
2022-08-18T04:55:03.982Z,97793.47
2022-08-18T04:57:34.883Z,97793.47
2022-08-18T05:00:03.971Z,97791.88
2022-08-18T05:02:33.033Z,97789.13
2022-08-18T05:05:03.929Z,97799.38
2022-08-18T05:07:32.071Z,97796.16
2022-08-18T05:10:00.022Z,97800.50
2022-08-18T05:12:28.330Z,97798.88
2022-08-18T05:14:57.737Z,97793.25
2022-08-18T05:17:30.096Z,97794.78
2022-08-18T05:19:58.759Z,97790.78
2022-08-18T05:22:30.424Z,97792.34
2022-08-18T05:24:59.898Z,97796.22
2022-08-18T05:27:33.886Z,97786.69
2022-08-18T05:30:02.391Z,97803.84
2022-08-18T05:32:47.662Z,97799.09
2022-08-18T05:35:23.095Z,97801.41
2022-08-18T05:38:35.117Z,97799.72
2022-08-18T05:41:13.673Z,97797.25
2022-08-18T05:43:51.224Z,97798.38
2022-08-18T05:46:22.800Z,97786.13
2022-08-18T05:48:51.455Z,97798.97
2022-08-18T05:51:30.442Z,97800.13
2022-08-18T05:54:19.036Z,97798.47
2022-08-18T05:56:51.071Z,97791.56
2022-08-18T05:59:24.659Z,97791.81
2022-08-18T06:01:59.961Z,97782.25
2022-08-18T06:04:38.914Z,97792.91
2022-08-18T06:07:12.398Z,97800.03
2022-08-18T06:09:48.517Z,97807.84
2022-08-18T06:12:25.422Z,97805.19
2022-08-18T06:15:01.657Z,97804.34
2022-08-18T06:17:57.952Z,97814.25
2022-08-18T06:20:33.547Z,97811.13
2022-08-18T06:23:18.516Z,97814.06
2022-08-18T06:25:58.797Z,97813.03
2022-08-18T06:28:30.414Z,97824.06
2022-08-18T06:31:02.117Z,97823.00
2022-08-18T06:33:50.571Z,97822.06
2022-08-18T06:36:33.329Z,97825.41
2022-08-18T06:39:07.190Z,97831.09
2022-08-18T06:41:42.980Z,97829.44
2022-08-18T06:44:13.400Z,97839.47
2022-08-18T06:46:46.151Z,97827.81
2022-08-18T06:49:25.427Z,97844.69
2022-08-18T06:51:53.749Z,97850.06
2022-08-18T06:54:30.650Z,97855.41
2022-08-18T06:57:00.101Z,97852.03
2022-08-18T06:59:30.866Z,97860.31
2022-08-18T07:02:02.092Z,97851.53
2022-08-18T07:04:38.471Z,97852.00
2022-08-18T07:07:15.338Z,97846.94
2022-08-18T07:09:43.396Z,97857.22
2022-08-18T07:12:20.434Z,97859.22
2022-08-18T07:14:52.094Z,97849.91
2022-08-18T07:17:23.097Z,97847.34
2022-08-18T07:20:20.607Z,97841.25
2022-08-18T07:23:00.258Z,97844.25
2022-08-18T07:25:32.448Z,97839.13
2022-08-18T07:28:02.905Z,97834.97
2022-08-18T07:30:35.956Z,97840.53
2022-08-18T07:33:14.960Z,97842.56
2022-08-18T07:35:49.135Z,97837.91
2022-08-18T07:41:16.421Z,97837.81
2022-08-18T07:43:59.533Z,97830.09
2022-08-18T07:46:39.930Z,97824.00
2022-08-18T07:49:07.994Z,97825.53
2022-08-18T07:51:47.600Z,97823.16
2022-08-18T07:54:50.792Z,97820.91
2022-08-18T07:57:29.686Z,97828.31
2022-08-18T08:00:11.220Z,97814.34
2022-08-18T08:02:58.841Z,97820.72
2022-08-18T08:05:41.415Z,97826.69
2022-08-18T08:08:24.919Z,97819.28
2022-08-18T08:11:08.806Z,97817.59
2022-08-18T08:13:55.641Z,97830.88
2022-08-18T08:16:36.562Z,97813.75
2022-08-18T08:19:49.438Z,97830.50
2022-08-18T08:22:22.035Z,97826.66
2022-08-18T08:24:58.038Z,97816.44
2022-08-18T08:27:37.794Z,97828.84
2022-08-18T08:30:10.862Z,97821.00
2022-08-18T08:32:50.775Z,97822.16
2022-08-18T08:35:48.754Z,97828.38
2022-08-18T08:38:39.954Z,97827.53
2022-08-18T08:41:14.415Z,97825.06
2022-08-18T08:43:46.649Z,97830.03
2022-08-18T08:46:20.859Z,97841.38
2022-08-18T08:48:55.929Z,97843.91
2022-08-18T08:51:38.193Z,97842.53
2022-08-18T08:54:12.043Z,97847.41
2022-08-18T08:56:47.686Z,97857.34
2022-08-18T08:59:18.581Z,97853.44
2022-08-18T09:01:53.571Z,97853.00
2022-08-18T09:04:34.041Z,97863.88
2022-08-18T09:07:18.794Z,97868.72
2022-08-18T09:10:06.036Z,97866.84
2022-08-18T09:12:48.222Z,97866.19
2022-08-18T09:15:44.650Z,97858.69
2022-08-18T09:18:36.352Z,97860.56
2022-08-18T09:21:15.973Z,97859.28
2022-08-18T09:23:47.405Z,97866.16
2022-08-18T09:26:39.500Z,97866.59
2022-08-18T09:29:17.712Z,97856.25
2022-08-18T09:31:48.606Z,97856.44
2022-08-18T09:34:32.622Z,97858.09
2022-08-18T09:37:17.759Z,97861.19
2022-08-18T09:40:14.668Z,97866.53
2022-08-18T09:42:50.385Z,97859.44
2022-08-18T09:45:42.393Z,97856.53
2022-08-18T09:48:29.282Z,97857.09
2022-08-18T09:51:18.768Z,97863.19
2022-08-18T09:54:09.068Z,97862.22
2022-08-18T09:57:19.453Z,97863.50
2022-08-18T09:59:58.042Z,97856.94
2022-08-18T10:03:12.314Z,97857.13
2022-08-18T10:05:42.130Z,97849.97
2022-08-18T10:08:38.031Z,97854.69
2022-08-18T10:11:29.513Z,97843.78
2022-08-18T10:14:12.184Z,97847.38
2022-08-18T10:17:15.818Z,97841.91
2022-08-18T10:19:49.059Z,97834.09
2022-08-18T10:22:38.842Z,97827.78
2022-08-18T10:25:22.569Z,97840.53
2022-08-18T10:27:56.699Z,97841.16
2022-08-18T10:34:08.379Z,97837.09
2022-08-18T10:36:52.423Z,97845.22
2022-08-18T10:39:23.293Z,97836.13
2022-08-18T10:42:01.396Z,97840.56
2022-08-18T10:44:33.258Z,97834.56
2022-08-18T10:47:03.984Z,97838.97
2022-08-18T10:49:44.562Z,97827.03
2022-08-18T10:55:51.233Z,97824.81
2022-08-18T10:58:32.320Z,97819.53
2022-08-18T11:01:22.637Z,97815.22
2022-08-18T11:04:14.325Z,97808.16
2022-08-18T11:07:02.531Z,97815.56
2022-08-18T11:09:36.951Z,97797.06
2022-08-18T11:12:11.965Z,97804.06
2022-08-18T11:14:55.710Z,97807.31
2022-08-18T11:20:31.956Z,97805.75
2022-08-18T11:23:02.879Z,97802.00
2022-08-18T11:25:32.062Z,97797.19
2022-08-18T11:28:02.302Z,97789.69
2022-08-18T11:30:35.228Z,97792.50
2022-08-18T11:33:06.793Z,97782.75
2022-08-18T11:35:47.008Z,97785.31
2022-08-18T11:38:20.900Z,97781.38
2022-08-18T11:41:11.569Z,97775.84
2022-08-18T11:46:33.395Z,97769.06
2022-08-18T11:49:24.288Z,97776.38
2022-08-18T11:51:57.871Z,97773.47
2022-08-18T11:54:50.488Z,97765.78
2022-08-18T11:57:46.879Z,97767.13
2022-08-18T12:00:42.569Z,97765.28
2022-08-18T12:03:19.136Z,97754.78
2022-08-18T12:08:58.261Z,97747.81
2022-08-18T12:11:30.305Z,97736.03
2022-08-18T12:14:30.142Z,97738.66
2022-08-18T12:16:54.116Z,97736.13
2022-08-18T12:22:17.684Z,97736.91
2022-08-18T12:24:48.309Z,97737.19
2022-08-18T12:27:25.081Z,97734.38
2022-08-18T12:30:01.779Z,97737.72
2022-08-18T12:32:50.181Z,97721.75
2022-08-18T12:35:21.799Z,97716.63
2022-08-18T12:37:59.623Z,97712.25
2022-08-18T12:40:28.642Z,97714.81
2022-08-18T12:42:56.894Z,97712.25
2022-08-18T12:45:27.207Z,97712.75
2022-08-18T12:47:55.422Z,97711.50
2022-08-18T12:50:31.160Z,97716.09
2022-08-18T12:53:04.497Z,97708.91
2022-08-18T12:58:24.864Z,97718.94
2022-08-18T13:00:53.075Z,97712.50
2022-08-18T13:03:21.335Z,97716.84
2022-08-18T13:05:49.164Z,97713.22
2022-08-18T13:08:30.656Z,97713.88
2022-08-18T13:11:14.521Z,97710.03
2022-08-18T13:13:43.966Z,97708.28
2022-08-18T13:16:16.463Z,97720.44
2022-08-18T13:19:02.005Z,97715.56
2022-08-18T13:21:40.977Z,97722.25
2022-08-18T13:24:12.792Z,97712.41
2022-08-18T13:26:45.819Z,97720.72
2022-08-18T13:29:15.468Z,97718.94
2022-08-18T13:31:55.819Z,97722.25
2022-08-18T13:34:30.109Z,97724.56
2022-08-18T13:36:58.329Z,97726.81
2022-08-18T13:39:34.268Z,97737.16
2022-08-18T13:42:26.589Z,97728.41
2022-08-18T13:44:53.361Z,97737.16
2022-08-18T13:47:21.695Z,97741.44
2022-08-18T13:49:58.367Z,97736.22
2022-08-18T13:52:34.857Z,97738.56
2022-08-18T13:55:08.431Z,97740.09
2022-08-18T13:57:41.899Z,97725.13
2022-08-18T14:00:18.386Z,97735.34
2022-08-18T14:02:52.365Z,97735.03
2022-08-18T14:05:21.042Z,97741.13
2022-08-18T14:08:06.226Z,97745.03
2022-08-18T14:10:35.467Z,97746.31
2022-08-18T14:13:19.912Z,97742.69
2022-08-18T14:15:53.509Z,97751.88
2022-08-18T14:18:21.907Z,97755.75
2022-08-18T14:21:14.723Z,97750.81
2022-08-18T14:24:14.215Z,97749.88
2022-08-18T14:26:50.004Z,97736.75
2022-08-18T14:29:46.077Z,97738.56
2022-08-18T14:32:08.382Z,97734.53
2022-08-18T14:34:36.814Z,97732.59
2022-08-18T14:37:05.003Z,97729.63
2022-08-18T14:39:38.575Z,97723.88
2022-08-18T14:42:09.639Z,97723.72
2022-08-18T14:44:40.350Z,97718.75
2022-08-18T14:47:09.416Z,97714.34
2022-08-18T14:49:42.977Z,97711.59
2022-08-18T14:52:16.080Z,97718.75
2022-08-18T14:54:46.275Z,97716.91
2022-08-18T14:59:49.256Z,97720.03
2022-08-18T15:02:17.612Z,97715.59
2022-08-18T15:04:56.001Z,97716.66
2022-08-18T15:07:26.168Z,97717.53
2022-08-18T15:10:19.701Z,97726.84
2022-08-18T15:12:44.572Z,97716.84
2022-08-18T15:15:17.998Z,97714.22
2022-08-18T15:17:49.554Z,97713.13
2022-08-18T15:20:23.977Z,97713.94
2022-08-18T15:23:22.823Z,97711.88
2022-08-18T15:25:56.977Z,97710.13
2022-08-18T15:28:28.298Z,97711.88
2022-08-18T15:33:44.089Z,97706.88
2022-08-18T15:36:28.909Z,97704.91
2022-08-18T15:38:57.967Z,97708.13
2022-08-18T15:41:32.714Z,97702.94
2022-08-18T15:44:05.771Z,97711.78
2022-08-18T15:46:34.952Z,97717.03
2022-08-18T15:49:05.343Z,97718.41
2022-08-18T15:51:35.509Z,97715.13
2022-08-18T15:54:11.398Z,97720.25
2022-08-18T15:56:39.667Z,97698.97
2022-08-18T15:59:12.958Z,97710.78
2022-08-18T16:01:43.443Z,97711.84
2022-08-18T16:04:11.314Z,97709.94
2022-08-18T16:06:41.685Z,97698.13
2022-08-18T16:09:09.521Z,97701.28
2022-08-18T16:11:37.423Z,97710.31
2022-08-18T16:14:06.454Z,97710.69
2022-08-18T16:16:36.648Z,97697.31
2022-08-18T16:19:06.742Z,97695.59
2022-08-18T16:21:40.065Z,97692.44
2022-08-18T16:24:09.320Z,97678.00
2022-08-18T16:26:37.629Z,97680.91
2022-08-18T16:29:05.415Z,97684.97
2022-08-18T16:31:33.778Z,97680.69
2022-08-18T16:34:03.199Z,97681.47
2022-08-18T16:36:31.004Z,97681.53
2022-08-18T16:38:59.120Z,97686.94
2022-08-18T16:41:28.196Z,97687.00
2022-08-18T16:43:56.331Z,97685.22
2022-08-18T16:46:27.109Z,97688.09
2022-08-18T16:48:56.075Z,97695.84
2022-08-18T16:51:26.741Z,97689.38
2022-08-18T16:53:55.128Z,97693.44
2022-08-18T16:56:25.165Z,97693.19
2022-08-18T16:59:10.527Z,97689.84
2022-08-18T17:01:56.844Z,97690.84
2022-08-18T17:04:29.032Z,97678.03
2022-08-18T17:06:58.567Z,97665.44
2022-08-18T17:09:27.393Z,97668.72
2022-08-18T17:11:55.532Z,97670.63
2022-08-18T17:14:25.921Z,97673.53
2022-08-18T17:16:55.382Z,97654.66
2022-08-18T17:19:25.348Z,97655.59
2022-08-18T17:21:53.744Z,97649.41
2022-08-18T17:24:31.993Z,97644.94
2022-08-18T17:27:20.387Z,97641.06
2022-08-18T17:30:03.101Z,97651.81
2022-08-18T17:35:14.734Z,97658.13
2022-08-18T17:37:52.197Z,97674.59
2022-08-18T17:40:28.557Z,97672.41
2022-08-18T17:42:59.768Z,97663.38
2022-08-18T17:45:30.747Z,97655.13
2022-08-18T17:48:03.725Z,97664.31
2022-08-18T17:51:00.521Z,97663.03
2022-08-18T17:53:31.761Z,97670.59
2022-08-18T17:56:07.654Z,97680.66
2022-08-18T17:58:40.676Z,97681.84
2022-08-18T18:01:09.530Z,97684.63
2022-08-18T18:03:38.011Z,97688.91
2022-08-18T18:06:12.001Z,97690.47
2022-08-18T18:08:53.822Z,97691.38
2022-08-18T18:11:28.628Z,97694.72
2022-08-18T18:13:56.690Z,97698.75
2022-08-18T18:16:28.175Z,97709.44
2022-08-18T18:19:01.354Z,97716.13
2022-08-18T18:22:01.526Z,97720.59
2022-08-18T18:24:24.154Z,97714.13
2022-08-18T18:26:53.607Z,97711.38
2022-08-18T18:29:29.108Z,97711.75
2022-08-18T18:32:01.615Z,97711.72
2022-08-18T18:34:34.217Z,97714.75
2022-08-18T18:37:03.394Z,97715.09
2022-08-18T18:39:35.628Z,97721.16
2022-08-18T18:42:18.399Z,97716.91
2022-08-18T18:44:55.662Z,97709.66
2022-08-18T18:47:50.391Z,97721.38
2022-08-18T18:50:27.341Z,97716.72
2022-08-18T18:53:12.118Z,97710.91
2022-08-18T18:55:48.540Z,97705.88
2022-08-18T18:58:33.271Z,97710.47
2022-08-18T19:01:05.594Z,97706.56
2022-08-18T19:03:40.695Z,97693.22
2022-08-18T19:06:21.085Z,97697.34
2022-08-18T19:08:57.961Z,97699.25
2022-08-18T19:11:30.685Z,97691.47
2022-08-18T19:14:07.341Z,97685.00
2022-08-18T19:16:41.655Z,97687.03
2022-08-18T19:19:37.649Z,97683.38
2022-08-18T19:22:09.880Z,97676.47
2022-08-18T19:24:46.440Z,97670.44
2022-08-18T19:27:23.679Z,97666.34
2022-08-18T19:29:58.061Z,97659.41
2022-08-18T19:32:34.827Z,97646.47
2022-08-18T19:35:04.461Z,97641.03
2022-08-18T19:37:53.813Z,97638.44
2022-08-18T19:40:28.249Z,97626.44
2022-08-18T19:43:02.816Z,97624.97
2022-08-18T19:45:37.330Z,97621.53
2022-08-18T19:48:15.161Z,97615.53
2022-08-18T19:50:51.923Z,97614.56
2022-08-18T19:54:04.261Z,97607.19
2022-08-18T19:56:53.312Z,97595.59
2022-08-18T19:59:38.700Z,97605.25
2022-08-18T20:02:26.465Z,97576.88
2022-08-18T20:05:09.277Z,97598.69
2022-08-18T20:07:55.615Z,97595.91
2022-08-18T20:10:53.677Z,97591.56
2022-08-18T20:13:32.594Z,97600.06
2022-08-18T20:16:28.565Z,97606.28
2022-08-18T20:19:42.032Z,97609.06
2022-08-18T20:22:16.131Z,97614.13
2022-08-18T20:24:51.753Z,97621.91
2022-08-18T20:27:35.914Z,97621.22
2022-08-18T20:30:33.138Z,97615.53
2022-08-18T20:33:20.600Z,97611.09
2022-08-18T20:35:59.430Z,97599.66
2022-08-18T20:38:34.260Z,97611.66
2022-08-18T20:41:39.181Z,97601.44
2022-08-18T20:44:29.416Z,97611.53
2022-08-18T20:47:11.161Z,97610.72
2022-08-18T20:49:52.745Z,97608.47
2022-08-18T20:52:37.837Z,97604.13
2022-08-18T20:55:16.393Z,97601.94
2022-08-18T20:57:45.201Z,97603.50
2022-08-18T21:00:15.763Z,97609.06
